sensor_id;sensor_type;location;lat;lon;timestamp;P1;durP1;ratioP1;P2;durP2;ratioP2
42666;SDS011;28280;49.646;14.130;2023-03-23T00:01:51;8.48;;;4.53;;
42666;SDS011;28280;49.646;14.130;2023-03-23T00:12:11;5.90;;;4.20;;
42666;SDS011;28280;49.646;14.130;2023-03-23T00:22:34;6.07;;;3.88;;
42666;SDS011;28280;49.646;14.130;2023-03-23T00:32:57;6.75;;;3.88;;
42666;SDS011;28280;49.646;14.130;2023-03-23T00:43:18;6.43;;;4.18;;
42666;SDS011;28280;49.646;14.130;2023-03-23T00:53:39;5.70;;;3.72;;
42666;SDS011;28280;49.646;14.130;2023-03-23T01:04:00;5.88;;;3.97;;
42666;SDS011;28280;49.646;14.130;2023-03-23T01:14:23;6.50;;;4.25;;
42666;SDS011;28280;49.646;14.130;2023-03-23T01:24:44;5.53;;;3.42;;
42666;SDS011;28280;49.646;14.130;2023-03-23T01:35:05;4.63;;;3.08;;
42666;SDS011;28280;49.646;14.130;2023-03-23T01:45:28;5.88;;;3.30;;
42666;SDS011;28280;49.646;14.130;2023-03-23T01:55:50;6.40;;;3.33;;
42666;SDS011;28280;49.646;14.130;2023-03-23T02:06:12;5.97;;;3.67;;
42666;SDS011;28280;49.646;14.130;2023-03-23T02:27:24;4.68;;;3.35;;
42666;SDS011;28280;49.646;14.130;2023-03-23T02:48:17;6.25;;;3.80;;
42666;SDS011;28280;49.646;14.130;2023-03-23T02:58:40;4.70;;;3.58;;
42666;SDS011;28280;49.646;14.130;2023-03-23T03:09:11;6.43;;;4.10;;
42666;SDS011;28280;49.646;14.130;2023-03-23T03:19:54;5.65;;;3.65;;
42666;SDS011;28280;49.646;14.130;2023-03-23T03:40:41;4.72;;;3.22;;
42666;SDS011;28280;49.646;14.130;2023-03-23T03:51:02;6.35;;;3.92;;
42666;SDS011;28280;49.646;14.130;2023-03-23T04:01:25;4.70;;;3.42;;
42666;SDS011;28280;49.646;14.130;2023-03-23T04:11:45;5.05;;;2.92;;
42666;SDS011;28280;49.646;14.130;2023-03-23T04:22:24;5.63;;;3.10;;
42666;SDS011;28280;49.646;14.130;2023-03-23T04:32:50;6.15;;;3.28;;
42666;SDS011;28280;49.646;14.130;2023-03-23T04:43:15;4.53;;;3.10;;
42666;SDS011;28280;49.646;14.130;2023-03-23T04:53:46;4.72;;;3.30;;
42666;SDS011;28280;49.646;14.130;2023-03-23T05:04:07;6.70;;;3.47;;
42666;SDS011;28280;49.646;14.130;2023-03-23T05:14:28;4.45;;;2.88;;
42666;SDS011;28280;49.646;14.130;2023-03-23T05:24:58;4.70;;;3.33;;
42666;SDS011;28280;49.646;14.130;2023-03-23T05:35:19;7.25;;;4.18;;
42666;SDS011;28280;49.646;14.130;2023-03-23T05:45:42;4.82;;;3.13;;
42666;SDS011;28280;49.646;14.130;2023-03-23T05:56:03;4.65;;;2.90;;
42666;SDS011;28280;49.646;14.130;2023-03-23T06:06:41;4.78;;;2.75;;
42666;SDS011;28280;49.646;14.130;2023-03-23T06:17:04;5.03;;;2.78;;
42666;SDS011;28280;49.646;14.130;2023-03-23T06:27:25;4.90;;;2.80;;
42666;SDS011;28280;49.646;14.130;2023-03-23T06:37:47;4.22;;;2.75;;
42666;SDS011;28280;49.646;14.130;2023-03-23T06:48:17;4.68;;;2.75;;
42666;SDS011;28280;49.646;14.130;2023-03-23T06:58:38;3.95;;;2.83;;
42666;SDS011;28280;49.646;14.130;2023-03-23T07:08:58;4.07;;;2.50;;
42666;SDS011;28280;49.646;14.130;2023-03-23T07:19:21;3.17;;;2.60;;
42666;SDS011;28280;49.646;14.130;2023-03-23T07:29:42;4.13;;;2.28;;
42666;SDS011;28280;49.646;14.130;2023-03-23T07:40:09;3.30;;;2.33;;
42666;SDS011;28280;49.646;14.130;2023-03-23T07:50:37;3.55;;;2.50;;
42666;SDS011;28280;49.646;14.130;2023-03-23T08:01:02;4.15;;;2.10;;
42666;SDS011;28280;49.646;14.130;2023-03-23T08:11:26;4.95;;;2.30;;
42666;SDS011;28280;49.646;14.130;2023-03-23T08:22:21;3.17;;;2.13;;
42666;SDS011;28280;49.646;14.130;2023-03-23T08:33:03;3.60;;;1.80;;
42666;SDS011;28280;49.646;14.130;2023-03-23T08:43:52;3.42;;;2.20;;
42666;SDS011;28280;49.646;14.130;2023-03-23T08:54:48;4.63;;;2.15;;
42666;SDS011;28280;49.646;14.130;2023-03-23T09:05:27;4.85;;;1.92;;
42666;SDS011;28280;49.646;14.130;2023-03-23T09:16:09;3.78;;;1.98;;
42666;SDS011;28280;49.646;14.130;2023-03-23T09:26:30;2.97;;;1.90;;
42666;SDS011;28280;49.646;14.130;2023-03-23T09:36:51;3.70;;;2.20;;
42666;SDS011;28280;49.646;14.130;2023-03-23T09:47:23;2.40;;;1.67;;
42666;SDS011;28280;49.646;14.130;2023-03-23T10:08:31;2.50;;;1.73;;
42666;SDS011;28280;49.646;14.130;2023-03-23T10:30:11;1.83;;;1.30;;
42666;SDS011;28280;49.646;14.130;2023-03-23T10:40:44;3.35;;;1.60;;
42666;SDS011;28280;49.646;14.130;2023-03-23T10:51:10;3.75;;;1.45;;
42666;SDS011;28280;49.646;14.130;2023-03-23T11:01:33;1.85;;;1.60;;
42666;SDS011;28280;49.646;14.130;2023-03-23T11:11:56;1.65;;;1.15;;
42666;SDS011;28280;49.646;14.130;2023-03-23T11:22:20;2.38;;;1.50;;
42666;SDS011;28280;49.646;14.130;2023-03-23T11:32:47;2.50;;;1.30;;
42666;SDS011;28280;49.646;14.130;2023-03-23T11:43:12;2.30;;;1.38;;
42666;SDS011;28280;49.646;14.130;2023-03-23T11:53:42;1.70;;;1.20;;
42666;SDS011;28280;49.646;14.130;2023-03-23T12:46:49;2.25;;;1.30;;
42666;SDS011;28280;49.646;14.130;2023-03-23T13:08:02;1.85;;;1.15;;
42666;SDS011;28280;49.646;14.130;2023-03-23T13:18:48;2.28;;;1.20;;
42666;SDS011;28280;49.646;14.130;2023-03-23T13:29:19;1.67;;;0.93;;
42666;SDS011;28280;49.646;14.130;2023-03-23T14:10:58;1.77;;;1.20;;
42666;SDS011;28280;49.646;14.130;2023-03-23T14:31:54;2.17;;;1.15;;
42666;SDS011;28280;49.646;14.130;2023-03-23T14:42:16;2.40;;;1.20;;
42666;SDS011;28280;49.646;14.130;2023-03-23T14:52:39;3.38;;;1.30;;
42666;SDS011;28280;49.646;14.130;2023-03-23T15:03:00;2.00;;;1.15;;
42666;SDS011;28280;49.646;14.130;2023-03-23T15:13:21;2.17;;;1.23;;
42666;SDS011;28280;49.646;14.130;2023-03-23T15:23:42;1.73;;;1.30;;
42666;SDS011;28280;49.646;14.130;2023-03-23T15:34:03;2.65;;;1.60;;
42666;SDS011;28280;49.646;14.130;2023-03-23T15:54:50;1.70;;;1.15;;
42666;SDS011;28280;49.646;14.130;2023-03-23T16:05:13;2.13;;;1.40;;
42666;SDS011;28280;49.646;14.130;2023-03-23T16:15:35;2.63;;;1.48;;
42666;SDS011;28280;49.646;14.130;2023-03-23T16:25:56;1.75;;;1.30;;
42666;SDS011;28280;49.646;14.130;2023-03-23T16:36:17;3.58;;;1.50;;
42666;SDS011;28280;49.646;14.130;2023-03-23T16:46:39;2.03;;;1.30;;
42666;SDS011;28280;49.646;14.130;2023-03-23T16:57:00;1.48;;;1.20;;
42666;SDS011;28280;49.646;14.130;2023-03-23T17:07:21;2.83;;;1.30;;
42666;SDS011;28280;49.646;14.130;2023-03-23T17:17:42;2.17;;;1.38;;
42666;SDS011;28280;49.646;14.130;2023-03-23T17:28:04;2.33;;;1.45;;
42666;SDS011;28280;49.646;14.130;2023-03-23T17:38:26;2.92;;;1.27;;
42666;SDS011;28280;49.646;14.130;2023-03-23T17:48:48;2.83;;;1.42;;
42666;SDS011;28280;49.646;14.130;2023-03-23T17:59:09;1.92;;;1.50;;
42666;SDS011;28280;49.646;14.130;2023-03-23T18:09:30;3.38;;;1.70;;
42666;SDS011;28280;49.646;14.130;2023-03-23T18:19:52;2.42;;;1.80;;
42666;SDS011;28280;49.646;14.130;2023-03-23T18:30:14;2.72;;;1.33;;
42666;SDS011;28280;49.646;14.130;2023-03-23T18:40:40;1.95;;;1.40;;
42666;SDS011;28280;49.646;14.130;2023-03-23T18:51:03;2.38;;;1.77;;
42666;SDS011;28280;49.646;14.130;2023-03-23T19:01:25;2.72;;;1.77;;
42666;SDS011;28280;49.646;14.130;2023-03-23T19:11:46;3.45;;;1.80;;
42666;SDS011;28280;49.646;14.130;2023-03-23T19:22:08;2.78;;;1.88;;
42666;SDS011;28280;49.646;14.130;2023-03-23T19:32:31;2.83;;;1.65;;
42666;SDS011;28280;49.646;14.130;2023-03-23T19:42:53;2.83;;;1.80;;
42666;SDS011;28280;49.646;14.130;2023-03-23T19:53:15;2.85;;;1.77;;
42666;SDS011;28280;49.646;14.130;2023-03-23T20:03:39;3.72;;;1.80;;
42666;SDS011;28280;49.646;14.130;2023-03-23T20:14:02;4.55;;;1.75;;
42666;SDS011;28280;49.646;14.130;2023-03-23T20:24:23;1.85;;;1.60;;
42666;SDS011;28280;49.646;14.130;2023-03-23T20:34:45;2.55;;;1.70;;
42666;SDS011;28280;49.646;14.130;2023-03-23T20:45:10;3.90;;;2.20;;
42666;SDS011;28280;49.646;14.130;2023-03-23T20:55:34;4.03;;;2.40;;
42666;SDS011;28280;49.646;14.130;2023-03-23T21:05:55;3.45;;;1.92;;
42666;SDS011;28280;49.646;14.130;2023-03-23T21:16:17;2.83;;;1.70;;
42666;SDS011;28280;49.646;14.130;2023-03-23T21:26:38;4.72;;;2.08;;
42666;SDS011;28280;49.646;14.130;2023-03-23T21:37:00;2.58;;;1.63;;
42666;SDS011;28280;49.646;14.130;2023-03-23T21:47:21;3.75;;;1.83;;
42666;SDS011;28280;49.646;14.130;2023-03-23T21:57:43;3.08;;;1.90;;
42666;SDS011;28280;49.646;14.130;2023-03-23T22:08:04;3.45;;;2.05;;
42666;SDS011;28280;49.646;14.130;2023-03-23T22:18:26;4.53;;;2.03;;
42666;SDS011;28280;49.646;14.130;2023-03-23T22:28:48;3.05;;;2.03;;
42666;SDS011;28280;49.646;14.130;2023-03-23T22:39:10;3.20;;;2.20;;
42666;SDS011;28280;49.646;14.130;2023-03-23T22:49:32;3.47;;;2.08;;
42666;SDS011;28280;49.646;14.130;2023-03-23T22:59:53;2.65;;;1.80;;
42666;SDS011;28280;49.646;14.130;2023-03-23T23:10:15;4.30;;;1.83;;
42666;SDS011;28280;49.646;14.130;2023-03-23T23:20:36;3.00;;;1.98;;
42666;SDS011;28280;49.646;14.130;2023-03-23T23:30:57;3.60;;;1.92;;
42666;SDS011;28280;49.646;14.130;2023-03-23T23:41:19;2.72;;;1.88;;
42666;SDS011;28280;49.646;14.130;2023-03-23T23:51:40;2.42;;;1.60;;
